sensor_id;sensor_type;location;lat;lon;timestamp;P1;durP1;ratioP1;P2;durP2;ratioP2
20142;SDS011;10509;46.476;7.134;2022-09-01T00:01:03;1.87;;;1.77;;
20142;SDS011;10509;46.476;7.134;2022-09-01T00:03:30;2.30;;;1.87;;
20142;SDS011;10509;46.476;7.134;2022-09-01T00:05:56;3.07;;;1.90;;
20142;SDS011;10509;46.476;7.134;2022-09-01T00:08:22;2.00;;;1.90;;
20142;SDS011;10509;46.476;7.134;2022-09-01T00:10:49;2.10;;;2.00;;
20142;SDS011;10509;46.476;7.134;2022-09-01T00:13:15;2.37;;;1.97;;
20142;SDS011;10509;46.476;7.134;2022-09-01T00:15:42;2.57;;;2.37;;
20142;SDS011;10509;46.476;7.134;2022-09-01T00:18:08;2.20;;;2.10;;
20142;SDS011;10509;46.476;7.134;2022-09-01T00:20:34;2.07;;;1.97;;
20142;SDS011;10509;46.476;7.134;2022-09-01T00:23:00;2.20;;;2.00;;
20142;SDS011;10509;46.476;7.134;2022-09-01T00:25:26;2.33;;;2.07;;
20142;SDS011;10509;46.476;7.134;2022-09-01T00:27:52;2.07;;;1.87;;
20142;SDS011;10509;46.476;7.134;2022-09-01T00:30:19;1.93;;;1.83;;
20142;SDS011;10509;46.476;7.134;2022-09-01T00:32:46;2.00;;;1.83;;
20142;SDS011;10509;46.476;7.134;2022-09-01T00:35:13;3.13;;;2.10;;
20142;SDS011;10509;46.476;7.134;2022-09-01T00:37:39;2.00;;;1.90;;
20142;SDS011;10509;46.476;7.134;2022-09-01T00:40:06;2.20;;;2.00;;
20142;SDS011;10509;46.476;7.134;2022-09-01T00:42:32;1.90;;;1.80;;
20142;SDS011;10509;46.476;7.134;2022-09-01T00:44:58;2.10;;;1.90;;
20142;SDS011;10509;46.476;7.134;2022-09-01T00:47:24;2.40;;;2.20;;
20142;SDS011;10509;46.476;7.134;2022-09-01T00:49:50;2.00;;;1.90;;
20142;SDS011;10509;46.476;7.134;2022-09-01T00:52:21;2.57;;;2.10;;
20142;SDS011;10509;46.476;7.134;2022-09-01T00:54:51;2.20;;;2.00;;
20142;SDS011;10509;46.476;7.134;2022-09-01T00:57:18;4.90;;;2.07;;
20142;SDS011;10509;46.476;7.134;2022-09-01T00:59:52;2.20;;;2.10;;
20142;SDS011;10509;46.476;7.134;2022-09-01T01:02:19;2.17;;;2.03;;
20142;SDS011;10509;46.476;7.134;2022-09-01T01:04:45;2.03;;;1.93;;
20142;SDS011;10509;46.476;7.134;2022-09-01T01:07:11;2.37;;;1.93;;
20142;SDS011;10509;46.476;7.134;2022-09-01T01:09:39;3.30;;;2.60;;
20142;SDS011;10509;46.476;7.134;2022-09-01T01:12:06;2.43;;;1.83;;
20142;SDS011;10509;46.476;7.134;2022-09-01T01:14:35;2.17;;;2.00;;
20142;SDS011;10509;46.476;7.134;2022-09-01T01:17:03;1.90;;;1.80;;
20142;SDS011;10509;46.476;7.134;2022-09-01T01:19:49;2.47;;;2.27;;
20142;SDS011;10509;46.476;7.134;2022-09-01T01:25:37;2.27;;;2.07;;
20142;SDS011;10509;46.476;7.134;2022-09-01T01:30:33;2.60;;;2.40;;
20142;SDS011;10509;46.476;7.134;2022-09-01T01:33:00;2.20;;;2.10;;
20142;SDS011;10509;46.476;7.134;2022-09-01T01:35:26;2.37;;;2.17;;
20142;SDS011;10509;46.476;7.134;2022-09-01T01:37:53;3.00;;;1.80;;
20142;SDS011;10509;46.476;7.134;2022-09-01T01:40:20;2.67;;;2.20;;
20142;SDS011;10509;46.476;7.134;2022-09-01T01:42:48;2.07;;;1.87;;
20142;SDS011;10509;46.476;7.134;2022-09-01T01:45:15;2.20;;;2.10;;
20142;SDS011;10509;46.476;7.134;2022-09-01T01:47:42;2.07;;;1.93;;
20142;SDS011;10509;46.476;7.134;2022-09-01T01:50:11;2.30;;;2.10;;
20142;SDS011;10509;46.476;7.134;2022-09-01T01:52:39;2.07;;;1.97;;
20142;SDS011;10509;46.476;7.134;2022-09-01T01:55:06;1.90;;;1.80;;
20142;SDS011;10509;46.476;7.134;2022-09-01T01:57:36;1.87;;;1.73;;
20142;SDS011;10509;46.476;7.134;2022-09-01T02:00:03;1.93;;;1.83;;
20142;SDS011;10509;46.476;7.134;2022-09-01T02:02:30;2.30;;;2.20;;
20142;SDS011;10509;46.476;7.134;2022-09-01T02:04:56;2.20;;;2.00;;
20142;SDS011;10509;46.476;7.134;2022-09-01T02:07:23;2.60;;;2.20;;
20142;SDS011;10509;46.476;7.134;2022-09-01T02:09:51;2.33;;;1.97;;
20142;SDS011;10509;46.476;7.134;2022-09-01T02:12:17;2.17;;;1.67;;
20142;SDS011;10509;46.476;7.134;2022-09-01T02:14:43;1.97;;;1.87;;
20142;SDS011;10509;46.476;7.134;2022-09-01T02:17:09;2.03;;;1.93;;
20142;SDS011;10509;46.476;7.134;2022-09-01T02:19:35;2.70;;;2.00;;
20142;SDS011;10509;46.476;7.134;2022-09-01T02:22:06;2.10;;;2.00;;
20142;SDS011;10509;46.476;7.134;2022-09-01T02:24:34;3.00;;;2.23;;
20142;SDS011;10509;46.476;7.134;2022-09-01T02:27:00;2.10;;;2.00;;
20142;SDS011;10509;46.476;7.134;2022-09-01T02:29:26;2.50;;;2.30;;
20142;SDS011;10509;46.476;7.134;2022-09-01T02:31:53;2.60;;;2.40;;
20142;SDS011;10509;46.476;7.134;2022-09-01T02:34:20;1.93;;;1.83;;
20142;SDS011;10509;46.476;7.134;2022-09-01T02:36:49;2.20;;;2.10;;
20142;SDS011;10509;46.476;7.134;2022-09-01T02:39:19;1.93;;;1.83;;
20142;SDS011;10509;46.476;7.134;2022-09-01T02:41:47;2.47;;;2.27;;
20142;SDS011;10509;46.476;7.134;2022-09-01T02:44:13;2.57;;;2.33;;
20142;SDS011;10509;46.476;7.134;2022-09-01T02:46:40;2.80;;;1.63;;
20142;SDS011;10509;46.476;7.134;2022-09-01T02:49:10;2.10;;;2.00;;
20142;SDS011;10509;46.476;7.134;2022-09-01T02:51:42;2.23;;;2.03;;
20142;SDS011;10509;46.476;7.134;2022-09-01T02:54:09;2.10;;;1.90;;
20142;SDS011;10509;46.476;7.134;2022-09-01T02:56:39;2.40;;;2.20;;
20142;SDS011;10509;46.476;7.134;2022-09-01T02:59:05;2.27;;;2.10;;
20142;SDS011;10509;46.476;7.134;2022-09-01T03:01:36;3.77;;;2.27;;
20142;SDS011;10509;46.476;7.134;2022-09-01T03:04:04;2.47;;;2.27;;
20142;SDS011;10509;46.476;7.134;2022-09-01T03:06:32;2.10;;;2.00;;
20142;SDS011;10509;46.476;7.134;2022-09-01T03:09:01;2.93;;;2.30;;
20142;SDS011;10509;46.476;7.134;2022-09-01T03:11:29;2.03;;;1.93;;
20142;SDS011;10509;46.476;7.134;2022-09-01T03:13:55;2.10;;;2.00;;
20142;SDS011;10509;46.476;7.134;2022-09-01T03:16:22;2.00;;;1.90;;
20142;SDS011;10509;46.476;7.134;2022-09-01T03:18:48;2.07;;;1.90;;
20142;SDS011;10509;46.476;7.134;2022-09-01T03:21:14;2.07;;;1.90;;
20142;SDS011;10509;46.476;7.134;2022-09-01T03:23:41;2.20;;;2.00;;
20142;SDS011;10509;46.476;7.134;2022-09-01T03:26:07;2.10;;;2.00;;
20142;SDS011;10509;46.476;7.134;2022-09-01T03:28:33;4.27;;;2.40;;
20142;SDS011;10509;46.476;7.134;2022-09-01T03:31:01;2.10;;;2.00;;
20142;SDS011;10509;46.476;7.134;2022-09-01T03:33:27;2.63;;;1.70;;
20142;SDS011;10509;46.476;7.134;2022-09-01T03:35:54;2.43;;;2.23;;
20142;SDS011;10509;46.476;7.134;2022-09-01T03:38:20;2.30;;;2.10;;
20142;SDS011;10509;46.476;7.134;2022-09-01T03:40:53;2.33;;;2.17;;
20142;SDS011;10509;46.476;7.134;2022-09-01T03:43:23;2.27;;;2.07;;
20142;SDS011;10509;46.476;7.134;2022-09-01T03:45:52;3.90;;;1.97;;
20142;SDS011;10509;46.476;7.134;2022-09-01T03:48:19;2.27;;;2.17;;
20142;SDS011;10509;46.476;7.134;2022-09-01T03:50:45;2.57;;;2.37;;
20142;SDS011;10509;46.476;7.134;2022-09-01T03:53:13;3.23;;;3.03;;
20142;SDS011;10509;46.476;7.134;2022-09-01T03:55:39;2.50;;;2.30;;
20142;SDS011;10509;46.476;7.134;2022-09-01T03:58:07;2.67;;;2.47;;
20142;SDS011;10509;46.476;7.134;2022-09-01T04:00:35;2.23;;;2.03;;
20142;SDS011;10509;46.476;7.134;2022-09-01T04:03:03;2.40;;;2.20;;
20142;SDS011;10509;46.476;7.134;2022-09-01T04:05:30;2.80;;;2.60;;
20142;SDS011;10509;46.476;7.134;2022-09-01T04:07:59;2.20;;;2.10;;
20142;SDS011;10509;46.476;7.134;2022-09-01T04:10:26;2.40;;;2.20;;
20142;SDS011;10509;46.476;7.134;2022-09-01T04:12:52;2.63;;;2.53;;
20142;SDS011;10509;46.476;7.134;2022-09-01T04:15:20;2.60;;;2.43;;
20142;SDS011;10509;46.476;7.134;2022-09-01T04:17:46;2.60;;;2.40;;
20142;SDS011;10509;46.476;7.134;2022-09-01T04:20:31;2.40;;;2.30;;
20142;SDS011;10509;46.476;7.134;2022-09-01T04:23:04;2.50;;;2.40;;
20142;SDS011;10509;46.476;7.134;2022-09-01T04:25:35;3.03;;;2.73;;
20142;SDS011;10509;46.476;7.134;2022-09-01T04:28:01;4.50;;;2.53;;
20142;SDS011;10509;46.476;7.134;2022-09-01T04:30:37;2.77;;;2.17;;
20142;SDS011;10509;46.476;7.134;2022-09-01T04:33:04;2.33;;;2.17;;
20142;SDS011;10509;46.476;7.134;2022-09-01T04:35:30;2.50;;;2.30;;
20142;SDS011;10509;46.476;7.134;2022-09-01T04:37:57;2.43;;;2.23;;
20142;SDS011;10509;46.476;7.134;2022-09-01T04:40:23;2.10;;;2.00;;
20142;SDS011;10509;46.476;7.134;2022-09-01T04:42:51;2.40;;;2.20;;
20142;SDS011;10509;46.476;7.134;2022-09-01T04:45:17;4.57;;;3.83;;
20142;SDS011;10509;46.476;7.134;2022-09-01T04:47:49;2.30;;;2.10;;
20142;SDS011;10509;46.476;7.134;2022-09-01T04:50:16;2.40;;;2.03;;
20142;SDS011;10509;46.476;7.134;2022-09-01T04:52:45;1.87;;;1.77;;
20142;SDS011;10509;46.476;7.134;2022-09-01T04:55:12;2.50;;;2.30;;
20142;SDS011;10509;46.476;7.134;2022-09-01T04:57:45;3.20;;;2.90;;
20142;SDS011;10509;46.476;7.134;2022-09-01T05:00:12;2.60;;;2.40;;
20142;SDS011;10509;46.476;7.134;2022-09-01T05:02:46;4.73;;;2.60;;
20142;SDS011;10509;46.476;7.134;2022-09-01T05:05:12;2.73;;;2.23;;
20142;SDS011;10509;46.476;7.134;2022-09-01T05:07:38;2.70;;;2.50;;
20142;SDS011;10509;46.476;7.134;2022-09-01T05:10:04;3.23;;;2.10;;
20142;SDS011;10509;46.476;7.134;2022-09-01T05:12:31;2.53;;;2.33;;
20142;SDS011;10509;46.476;7.134;2022-09-01T05:14:57;3.13;;;2.40;;
20142;SDS011;10509;46.476;7.134;2022-09-01T05:17:23;4.17;;;1.97;;
20142;SDS011;10509;46.476;7.134;2022-09-01T05:19:53;2.30;;;2.10;;
20142;SDS011;10509;46.476;7.134;2022-09-01T05:22:20;2.20;;;2.07;;
20142;SDS011;10509;46.476;7.134;2022-09-01T05:24:47;2.40;;;2.20;;
20142;SDS011;10509;46.476;7.134;2022-09-01T05:27:15;2.43;;;2.23;;
20142;SDS011;10509;46.476;7.134;2022-09-01T05:29:43;2.70;;;2.50;;
20142;SDS011;10509;46.476;7.134;2022-09-01T05:32:11;2.57;;;2.37;;
20142;SDS011;10509;46.476;7.134;2022-09-01T05:34:37;2.27;;;1.77;;
20142;SDS011;10509;46.476;7.134;2022-09-01T05:37:04;2.10;;;2.00;;
20142;SDS011;10509;46.476;7.134;2022-09-01T05:39:30;5.20;;;2.57;;
20142;SDS011;10509;46.476;7.134;2022-09-01T05:41:59;3.50;;;2.63;;
20142;SDS011;10509;46.476;7.134;2022-09-01T05:44:26;5.53;;;4.00;;
20142;SDS011;10509;46.476;7.134;2022-09-01T05:46:52;2.57;;;2.37;;
20142;SDS011;10509;46.476;7.134;2022-09-01T05:49:19;2.43;;;2.27;;
20142;SDS011;10509;46.476;7.134;2022-09-01T05:51:47;3.17;;;2.53;;
20142;SDS011;10509;46.476;7.134;2022-09-01T05:54:17;2.97;;;2.77;;
20142;SDS011;10509;46.476;7.134;2022-09-01T05:56:47;4.80;;;2.90;;
20142;SDS011;10509;46.476;7.134;2022-09-01T05:59:13;3.93;;;2.70;;
20142;SDS011;10509;46.476;7.134;2022-09-01T06:01:40;2.33;;;2.13;;
20142;SDS011;10509;46.476;7.134;2022-09-01T06:04:07;2.93;;;2.60;;
20142;SDS011;10509;46.476;7.134;2022-09-01T06:06:41;3.20;;;2.27;;
20142;SDS011;10509;46.476;7.134;2022-09-01T06:09:11;3.80;;;2.40;;
20142;SDS011;10509;46.476;7.134;2022-09-01T06:11:38;3.13;;;2.23;;
20142;SDS011;10509;46.476;7.134;2022-09-01T06:14:05;1.87;;;1.77;;
20142;SDS011;10509;46.476;7.134;2022-09-01T06:16:33;2.87;;;2.67;;
20142;SDS011;10509;46.476;7.134;2022-09-01T06:19:00;3.77;;;2.40;;
20142;SDS011;10509;46.476;7.134;2022-09-01T06:21:26;2.73;;;2.40;;
20142;SDS011;10509;46.476;7.134;2022-09-01T06:23:53;3.37;;;2.30;;
20142;SDS011;10509;46.476;7.134;2022-09-01T06:26:20;10.90;;;3.50;;
20142;SDS011;10509;46.476;7.134;2022-09-01T06:28:52;2.87;;;2.30;;
20142;SDS011;10509;46.476;7.134;2022-09-01T06:31:21;3.80;;;2.23;;
20142;SDS011;10509;46.476;7.134;2022-09-01T06:33:53;4.90;;;2.30;;
20142;SDS011;10509;46.476;7.134;2022-09-01T06:36:21;2.80;;;2.27;;
20142;SDS011;10509;46.476;7.134;2022-09-01T06:38:51;2.20;;;2.10;;
20142;SDS011;10509;46.476;7.134;2022-09-01T06:41:19;2.40;;;2.20;;
20142;SDS011;10509;46.476;7.134;2022-09-01T06:43:47;5.93;;;2.10;;
20142;SDS011;10509;46.476;7.134;2022-09-01T06:46:17;2.70;;;2.40;;
20142;SDS011;10509;46.476;7.134;2022-09-01T06:48:44;3.67;;;2.50;;
20142;SDS011;10509;46.476;7.134;2022-09-01T06:51:14;2.40;;;2.20;;
20142;SDS011;10509;46.476;7.134;2022-09-01T06:53:41;3.13;;;2.03;;
20142;SDS011;10509;46.476;7.134;2022-09-01T06:56:08;7.50;;;5.00;;
20142;SDS011;10509;46.476;7.134;2022-09-01T06:58:37;3.27;;;2.10;;
20142;SDS011;10509;46.476;7.134;2022-09-01T07:01:05;2.13;;;2.03;;
20142;SDS011;10509;46.476;7.134;2022-09-01T07:03:31;3.40;;;2.03;;
20142;SDS011;10509;46.476;7.134;2022-09-01T07:05:57;3.07;;;2.27;;
20142;SDS011;10509;46.476;7.134;2022-09-01T07:08:24;2.10;;;1.90;;
20142;SDS011;10509;46.476;7.134;2022-09-01T07:10:50;2.37;;;2.10;;
20142;SDS011;10509;46.476;7.134;2022-09-01T07:13:22;4.00;;;2.13;;
20142;SDS011;10509;46.476;7.134;2022-09-01T07:15:50;2.27;;;1.90;;
20142;SDS011;10509;46.476;7.134;2022-09-01T07:18:19;1.93;;;1.63;;
20142;SDS011;10509;46.476;7.134;2022-09-01T07:20:46;2.00;;;1.80;;
20142;SDS011;10509;46.476;7.134;2022-09-01T07:23:16;1.80;;;1.70;;
20142;SDS011;10509;46.476;7.134;2022-09-01T07:25:45;1.83;;;1.73;;
20142;SDS011;10509;46.476;7.134;2022-09-01T07:28:12;2.30;;;1.90;;
20142;SDS011;10509;46.476;7.134;2022-09-01T07:30:40;5.27;;;2.37;;
20142;SDS011;10509;46.476;7.134;2022-09-01T07:33:07;1.90;;;1.80;;
20142;SDS011;10509;46.476;7.134;2022-09-01T07:35:36;2.87;;;1.70;;
20142;SDS011;10509;46.476;7.134;2022-09-01T07:38:02;2.33;;;1.53;;
20142;SDS011;10509;46.476;7.134;2022-09-01T07:40:32;1.87;;;1.77;;
20142;SDS011;10509;46.476;7.134;2022-09-01T07:43:00;2.90;;;1.83;;
20142;SDS011;10509;46.476;7.134;2022-09-01T07:45:27;2.30;;;2.10;;
20142;SDS011;10509;46.476;7.134;2022-09-01T07:47:53;3.03;;;1.80;;
20142;SDS011;10509;46.476;7.134;2022-09-01T07:50:19;4.97;;;2.80;;
20142;SDS011;10509;46.476;7.134;2022-09-01T07:52:45;2.13;;;2.03;;
20142;SDS011;10509;46.476;7.134;2022-09-01T07:55:14;2.00;;;1.90;;
20142;SDS011;10509;46.476;7.134;2022-09-01T07:57:41;1.80;;;1.70;;
20142;SDS011;10509;46.476;7.134;2022-09-01T08:00:11;1.88;;;1.77;;
20142;SDS011;10509;46.476;7.134;2022-09-01T08:02:39;3.83;;;1.98;;
20142;SDS011;10509;46.476;7.134;2022-09-01T08:05:05;2.20;;;1.90;;
20142;SDS011;10509;46.476;7.134;2022-09-01T08:07:33;4.50;;;1.93;;
20142;SDS011;10509;46.476;7.134;2022-09-01T08:09:59;2.40;;;2.20;;
20142;SDS011;10509;46.476;7.134;2022-09-01T08:12:25;2.65;;;2.38;;
20142;SDS011;10509;46.476;7.134;2022-09-01T08:14:51;2.10;;;1.90;;
20142;SDS011;10509;46.476;7.134;2022-09-01T08:17:17;2.22;;;1.83;;
20142;SDS011;10509;46.476;7.134;2022-09-01T08:19:45;3.53;;;2.20;;
20142;SDS011;10509;46.476;7.134;2022-09-01T08:22:12;2.10;;;2.00;;
20142;SDS011;10509;46.476;7.134;2022-09-01T08:24:38;1.70;;;1.60;;
20142;SDS011;10509;46.476;7.134;2022-09-01T08:27:04;1.95;;;1.85;;
20142;SDS011;10509;46.476;7.134;2022-09-01T08:29:30;1.95;;;1.70;;
20142;SDS011;10509;46.476;7.134;2022-09-01T08:31:56;1.52;;;1.42;;
20142;SDS011;10509;46.476;7.134;2022-09-01T08:34:26;2.90;;;1.95;;
20142;SDS011;10509;46.476;7.134;2022-09-01T08:36:52;1.85;;;1.67;;
20142;SDS011;10509;46.476;7.134;2022-09-01T08:39:18;4.07;;;1.92;;
20142;SDS011;10509;46.476;7.134;2022-09-01T08:46:59;2.13;;;2.00;;
20142;SDS011;10509;46.476;7.134;2022-09-01T08:49:28;1.80;;;1.70;;
20142;SDS011;10509;46.476;7.134;2022-09-01T08:54:25;1.80;;;1.70;;
20142;SDS011;10509;46.476;7.134;2022-09-01T08:56:55;2.65;;;2.45;;
20142;SDS011;10509;46.476;7.134;2022-09-01T08:59:22;2.33;;;1.90;;
20142;SDS011;10509;46.476;7.134;2022-09-01T09:07:04;2.15;;;1.95;;
20142;SDS011;10509;46.476;7.134;2022-09-01T09:09:56;2.67;;;1.60;;
20142;SDS011;10509;46.476;7.134;2022-09-01T09:12:26;2.15;;;1.85;;
20142;SDS011;10509;46.476;7.134;2022-09-01T09:17:31;2.30;;;1.63;;
20142;SDS011;10509;46.476;7.134;2022-09-01T09:19:59;2.22;;;1.40;;
20142;SDS011;10509;46.476;7.134;2022-09-01T09:22:26;2.25;;;1.70;;
20142;SDS011;10509;46.476;7.134;2022-09-01T09:24:53;2.03;;;1.90;;
20142;SDS011;10509;46.476;7.134;2022-09-01T09:32:21;2.15;;;1.92;;
20142;SDS011;10509;46.476;7.134;2022-09-01T09:34:48;2.05;;;1.45;;
20142;SDS011;10509;46.476;7.134;2022-09-01T09:37:28;2.10;;;1.90;;
20142;SDS011;10509;46.476;7.134;2022-09-01T09:42:31;2.05;;;1.95;;
20142;SDS011;10509;46.476;7.134;2022-09-01T09:44:57;2.10;;;1.90;;
20142;SDS011;10509;46.476;7.134;2022-09-01T09:47:43;1.92;;;1.80;;
20142;SDS011;10509;46.476;7.134;2022-09-01T09:50:12;2.10;;;2.00;;
20142;SDS011;10509;46.476;7.134;2022-09-01T09:52:39;1.77;;;1.67;;
20142;SDS011;10509;46.476;7.134;2022-09-01T09:55:25;2.42;;;2.22;;
20142;SDS011;10509;46.476;7.134;2022-09-01T09:57:58;4.57;;;2.20;;
20142;SDS011;10509;46.476;7.134;2022-09-01T10:00:30;2.25;;;2.15;;
20142;SDS011;10509;46.476;7.134;2022-09-01T10:03:02;2.65;;;2.17;;
20142;SDS011;10509;46.476;7.134;2022-09-01T10:08:02;2.83;;;2.63;;
20142;SDS011;10509;46.476;7.134;2022-09-01T10:10:29;2.03;;;1.92;;
20142;SDS011;10509;46.476;7.134;2022-09-01T10:12:56;2.65;;;2.45;;
20142;SDS011;10509;46.476;7.134;2022-09-01T10:15:28;2.22;;;2.13;;
20142;SDS011;10509;46.476;7.134;2022-09-01T10:17:57;2.20;;;2.10;;
20142;SDS011;10509;46.476;7.134;2022-09-01T10:20:25;2.53;;;2.33;;
20142;SDS011;10509;46.476;7.134;2022-09-01T10:22:52;2.47;;;2.28;;
20142;SDS011;10509;46.476;7.134;2022-09-01T10:25:20;2.40;;;2.15;;
20142;SDS011;10509;46.476;7.134;2022-09-01T10:27:47;2.83;;;2.47;;
20142;SDS011;10509;46.476;7.134;2022-09-01T10:30:16;2.83;;;2.40;;
20142;SDS011;10509;46.476;7.134;2022-09-01T10:32:47;3.15;;;2.95;;
20142;SDS011;10509;46.476;7.134;2022-09-01T10:35:16;2.63;;;2.42;;
20142;SDS011;10509;46.476;7.134;2022-09-01T10:37:45;2.70;;;2.50;;
20142;SDS011;10509;46.476;7.134;2022-09-01T10:40:20;3.00;;;2.80;;
20142;SDS011;10509;46.476;7.134;2022-09-01T10:43:00;2.60;;;2.50;;
20142;SDS011;10509;46.476;7.134;2022-09-01T10:45:45;3.42;;;3.20;;
20142;SDS011;10509;46.476;7.134;2022-09-01T10:50:44;3.08;;;2.88;;
20142;SDS011;10509;46.476;7.134;2022-09-01T10:53:30;3.10;;;2.90;;
20142;SDS011;10509;46.476;7.134;2022-09-01T11:01:10;3.35;;;3.05;;
20142;SDS011;10509;46.476;7.134;2022-09-01T11:03:51;2.92;;;2.72;;
20142;SDS011;10509;46.476;7.134;2022-09-01T11:09:21;4.53;;;3.20;;
20142;SDS011;10509;46.476;7.134;2022-09-01T11:14:27;3.45;;;3.25;;
20142;SDS011;10509;46.476;7.134;2022-09-01T11:19:43;3.88;;;3.58;;
20142;SDS011;10509;46.476;7.134;2022-09-01T11:27:08;4.30;;;4.00;;
20142;SDS011;10509;46.476;7.134;2022-09-01T11:29:51;4.75;;;4.45;;
20142;SDS011;10509;46.476;7.134;2022-09-01T11:32:18;4.80;;;4.40;;
20142;SDS011;10509;46.476;7.134;2022-09-01T11:34:45;4.55;;;4.25;;
20142;SDS011;10509;46.476;7.134;2022-09-01T11:37:15;4.45;;;4.15;;
20142;SDS011;10509;46.476;7.134;2022-09-01T11:39:42;3.92;;;3.65;;
20142;SDS011;10509;46.476;7.134;2022-09-01T11:42:15;4.47;;;4.18;;
20142;SDS011;10509;46.476;7.134;2022-09-01T11:47:13;3.78;;;3.47;;
20142;SDS011;10509;46.476;7.134;2022-09-01T11:49:48;4.65;;;4.20;;
20142;SDS011;10509;46.476;7.134;2022-09-01T11:52:16;4.28;;;3.90;;
20142;SDS011;10509;46.476;7.134;2022-09-01T11:54:42;4.28;;;3.97;;
20142;SDS011;10509;46.476;7.134;2022-09-01T11:59:48;4.78;;;4.47;;
20142;SDS011;10509;46.476;7.134;2022-09-01T12:02:18;4.60;;;4.30;;
20142;SDS011;10509;46.476;7.134;2022-09-01T12:04:46;3.67;;;3.38;;
20142;SDS011;10509;46.476;7.134;2022-09-01T12:07:22;4.13;;;3.72;;
20142;SDS011;10509;46.476;7.134;2022-09-01T12:09:49;3.97;;;3.72;;
20142;SDS011;10509;46.476;7.134;2022-09-01T12:15:05;5.10;;;4.70;;
20142;SDS011;10509;46.476;7.134;2022-09-01T12:17:33;4.82;;;4.43;;
20142;SDS011;10509;46.476;7.134;2022-09-01T12:20:21;4.60;;;4.30;;
20142;SDS011;10509;46.476;7.134;2022-09-01T12:22:47;4.13;;;3.75;;
20142;SDS011;10509;46.476;7.134;2022-09-01T12:25:21;4.03;;;3.78;;
20142;SDS011;10509;46.476;7.134;2022-09-01T12:27:47;4.18;;;3.97;;
20142;SDS011;10509;46.476;7.134;2022-09-01T12:30:14;4.28;;;3.97;;
20142;SDS011;10509;46.476;7.134;2022-09-01T12:32:40;4.00;;;3.70;;
20142;SDS011;10509;46.476;7.134;2022-09-01T12:35:13;4.25;;;4.00;;
20142;SDS011;10509;46.476;7.134;2022-09-01T12:37:42;3.63;;;3.42;;
20142;SDS011;10509;46.476;7.134;2022-09-01T12:40:20;4.15;;;3.90;;
20142;SDS011;10509;46.476;7.134;2022-09-01T12:42:49;4.57;;;4.30;;
20142;SDS011;10509;46.476;7.134;2022-09-01T12:45:37;3.72;;;3.45;;
20142;SDS011;10509;46.476;7.134;2022-09-01T12:48:02;3.88;;;3.58;;
20142;SDS011;10509;46.476;7.134;2022-09-01T12:52:59;4.95;;;4.70;;
20142;SDS011;10509;46.476;7.134;2022-09-01T12:55:33;4.18;;;3.88;;
20142;SDS011;10509;46.476;7.134;2022-09-01T12:58:00;3.92;;;3.72;;
20142;SDS011;10509;46.476;7.134;2022-09-01T13:00:27;4.53;;;4.22;;
20142;SDS011;10509;46.476;7.134;2022-09-01T13:05:25;4.30;;;4.00;;
20142;SDS011;10509;46.476;7.134;2022-09-01T13:07:52;5.18;;;4.78;;
20142;SDS011;10509;46.476;7.134;2022-09-01T13:10:19;4.95;;;4.65;;
20142;SDS011;10509;46.476;7.134;2022-09-01T13:12:45;5.35;;;5.05;;
20142;SDS011;10509;46.476;7.134;2022-09-01T13:15:12;5.40;;;5.10;;
20142;SDS011;10509;46.476;7.134;2022-09-01T13:17:38;4.70;;;4.40;;
20142;SDS011;10509;46.476;7.134;2022-09-01T13:20:05;5.97;;;5.57;;
20142;SDS011;10509;46.476;7.134;2022-09-01T13:22:31;4.82;;;4.53;;
20142;SDS011;10509;46.476;7.134;2022-09-01T13:24:58;4.40;;;4.10;;
20142;SDS011;10509;46.476;7.134;2022-09-01T13:27:24;5.00;;;4.70;;
20142;SDS011;10509;46.476;7.134;2022-09-01T13:29:50;4.75;;;4.45;;
20142;SDS011;10509;46.476;7.134;2022-09-01T13:32:17;5.43;;;5.13;;
20142;SDS011;10509;46.476;7.134;2022-09-01T13:34:43;5.10;;;4.80;;
20142;SDS011;10509;46.476;7.134;2022-09-01T13:37:09;5.13;;;4.82;;
20142;SDS011;10509;46.476;7.134;2022-09-01T13:39:35;4.88;;;4.47;;
20142;SDS011;10509;46.476;7.134;2022-09-01T13:42:01;4.80;;;4.50;;
20142;SDS011;10509;46.476;7.134;2022-09-01T13:44:27;5.53;;;5.10;;
20142;SDS011;10509;46.476;7.134;2022-09-01T13:46:53;5.40;;;5.10;;
20142;SDS011;10509;46.476;7.134;2022-09-01T13:49:19;5.82;;;5.35;;
20142;SDS011;10509;46.476;7.134;2022-09-01T13:51:51;6.75;;;6.25;;
20142;SDS011;10509;46.476;7.134;2022-09-01T13:54:18;5.47;;;5.18;;
20142;SDS011;10509;46.476;7.134;2022-09-01T13:56:44;5.20;;;4.90;;
20142;SDS011;10509;46.476;7.134;2022-09-01T13:59:10;5.22;;;4.93;;
20142;SDS011;10509;46.476;7.134;2022-09-01T14:01:36;6.13;;;5.72;;
20142;SDS011;10509;46.476;7.134;2022-09-01T14:04:02;5.82;;;5.43;;
20142;SDS011;10509;46.476;7.134;2022-09-01T14:06:30;5.32;;;5.03;;
20142;SDS011;10509;46.476;7.134;2022-09-01T14:08:56;5.30;;;5.00;;
20142;SDS011;10509;46.476;7.134;2022-09-01T14:11:23;5.82;;;5.32;;
20142;SDS011;10509;46.476;7.134;2022-09-01T14:13:50;5.18;;;4.88;;
20142;SDS011;10509;46.476;7.134;2022-09-01T14:16:16;4.32;;;3.90;;
20142;SDS011;10509;46.476;7.134;2022-09-01T14:18:42;5.32;;;5.03;;
20142;SDS011;10509;46.476;7.134;2022-09-01T14:21:12;6.00;;;5.50;;
20142;SDS011;10509;46.476;7.134;2022-09-01T14:23:39;5.75;;;5.35;;
20142;SDS011;10509;46.476;7.134;2022-09-01T14:26:09;5.72;;;5.32;;
20142;SDS011;10509;46.476;7.134;2022-09-01T14:28:36;4.53;;;4.22;;
20142;SDS011;10509;46.476;7.134;2022-09-01T14:31:06;5.05;;;4.75;;
20142;SDS011;10509;46.476;7.134;2022-09-01T14:33:32;5.00;;;4.70;;
20142;SDS011;10509;46.476;7.134;2022-09-01T14:35:58;5.00;;;4.68;;
20142;SDS011;10509;46.476;7.134;2022-09-01T14:38:24;7.70;;;5.22;;
20142;SDS011;10509;46.476;7.134;2022-09-01T14:40:50;5.97;;;5.57;;
20142;SDS011;10509;46.476;7.134;2022-09-01T14:43:17;5.90;;;5.43;;
20142;SDS011;10509;46.476;7.134;2022-09-01T14:45:43;5.53;;;5.22;;
20142;SDS011;10509;46.476;7.134;2022-09-01T14:48:12;5.53;;;5.20;;
20142;SDS011;10509;46.476;7.134;2022-09-01T14:50:40;5.25;;;4.95;;
20142;SDS011;10509;46.476;7.134;2022-09-01T14:53:07;6.28;;;5.88;;
20142;SDS011;10509;46.476;7.134;2022-09-01T14:55:34;5.60;;;5.20;;
20142;SDS011;10509;46.476;7.134;2022-09-01T14:58:00;5.10;;;4.80;;
20142;SDS011;10509;46.476;7.134;2022-09-01T15:00:26;5.45;;;5.05;;
20142;SDS011;10509;46.476;7.134;2022-09-01T15:02:54;4.72;;;4.43;;
20142;SDS011;10509;46.476;7.134;2022-09-01T15:05:20;6.15;;;4.97;;
20142;SDS011;10509;46.476;7.134;2022-09-01T15:07:46;5.82;;;5.40;;
20142;SDS011;10509;46.476;7.134;2022-09-01T15:10:13;5.55;;;5.05;;
20142;SDS011;10509;46.476;7.134;2022-09-01T15:12:40;4.70;;;4.30;;
20142;SDS011;10509;46.476;7.134;2022-09-01T15:15:06;4.88;;;4.45;;
20142;SDS011;10509;46.476;7.134;2022-09-01T15:17:33;4.82;;;4.43;;
20142;SDS011;10509;46.476;7.134;2022-09-01T15:20:00;4.90;;;4.60;;
20142;SDS011;10509;46.476;7.134;2022-09-01T15:22:46;4.25;;;3.95;;
20142;SDS011;10509;46.476;7.134;2022-09-01T15:25:13;4.68;;;4.38;;
20142;SDS011;10509;46.476;7.134;2022-09-01T15:27:40;4.60;;;4.30;;
20142;SDS011;10509;46.476;7.134;2022-09-01T15:30:07;4.20;;;3.90;;
20142;SDS011;10509;46.476;7.134;2022-09-01T15:32:40;4.20;;;3.90;;
20142;SDS011;10509;46.476;7.134;2022-09-01T15:35:06;4.97;;;4.68;;
20142;SDS011;10509;46.476;7.134;2022-09-01T15:37:33;4.65;;;4.35;;
20142;SDS011;10509;46.476;7.134;2022-09-01T15:39:59;4.55;;;4.25;;
20142;SDS011;10509;46.476;7.134;2022-09-01T15:42:25;4.30;;;4.07;;
20142;SDS011;10509;46.476;7.134;2022-09-01T15:44:51;4.28;;;3.97;;
20142;SDS011;10509;46.476;7.134;2022-09-01T15:47:17;4.60;;;4.30;;
20142;SDS011;10509;46.476;7.134;2022-09-01T15:49:43;4.63;;;4.32;;
20142;SDS011;10509;46.476;7.134;2022-09-01T15:52:09;4.80;;;4.50;;
20142;SDS011;10509;46.476;7.134;2022-09-01T15:54:38;4.72;;;4.43;;
20142;SDS011;10509;46.476;7.134;2022-09-01T15:57:04;7.90;;;4.45;;
20142;SDS011;10509;46.476;7.134;2022-09-01T15:59:31;4.70;;;4.40;;